createdAt,value
2023-04-11T00:00:32.437Z,2.47
2023-04-11T00:03:00.318Z,2.78
2023-04-11T00:05:33.805Z,2.60
2023-04-11T00:08:00.662Z,2.75
2023-04-11T00:10:27.332Z,2.55
2023-04-11T00:12:56.670Z,2.55
2023-04-11T00:15:24.532Z,2.88
2023-04-11T00:17:51.296Z,3.22
2023-04-11T00:20:17.800Z,3.53
2023-04-11T00:22:44.249Z,3.70
2023-04-11T00:25:10.851Z,3.33
2023-04-11T00:27:37.387Z,4.25
2023-04-11T00:30:06.862Z,3.30
2023-04-11T00:32:33.627Z,4.32
2023-04-11T00:35:00.224Z,4.20
2023-04-11T00:37:26.673Z,4.10
2023-04-11T00:39:55.645Z,3.35
2023-04-11T00:42:22.251Z,3.75
2023-04-11T00:44:48.987Z,3.92
2023-04-11T00:47:15.606Z,4.05
2023-04-11T00:49:42.588Z,4.28
2023-04-11T00:52:09.415Z,3.58
2023-04-11T00:54:35.998Z,4.25
2023-04-11T00:57:04.378Z,3.72
2023-04-11T00:59:32.041Z,4.32
2023-04-11T01:01:59.632Z,4.07
2023-04-11T01:04:26.364Z,3.50
2023-04-11T01:07:01.767Z,4.22
2023-04-11T01:09:28.704Z,3.60
2023-04-11T01:11:56.211Z,4.07
2023-04-11T01:14:24.440Z,3.65
2023-04-11T01:16:52.049Z,3.95
2023-04-11T01:19:20.311Z,3.20
2023-04-11T01:21:49.689Z,3.67
2023-04-11T01:24:16.402Z,2.78
2023-04-11T01:26:43.155Z,3.75
2023-04-11T01:29:09.868Z,3.58
2023-04-11T01:31:36.426Z,2.97
2023-04-11T01:34:04.234Z,2.67
2023-04-11T01:36:32.161Z,2.35
2023-04-11T01:38:59.285Z,2.60
2023-04-11T01:41:27.513Z,2.25
2023-04-11T01:43:54.301Z,1.88
2023-04-11T01:46:21.674Z,2.30
2023-04-11T01:48:50.586Z,2.58
2023-04-11T01:51:17.177Z,2.10
2023-04-11T01:53:47.222Z,2.28
2023-04-11T01:56:14.557Z,2.03
2023-04-11T01:58:41.355Z,2.20
2023-04-11T02:01:08.044Z,2.42
2023-04-11T02:03:34.789Z,2.05
2023-04-11T02:06:01.397Z,1.90
2023-04-11T02:08:29.346Z,2.67
2023-04-11T02:10:55.806Z,1.98
2023-04-11T02:13:22.285Z,2.33
2023-04-11T02:15:48.786Z,2.70
2023-04-11T02:18:15.327Z,2.38
2023-04-11T02:20:41.726Z,2.92
2023-04-11T02:23:08.208Z,2.70
2023-04-11T02:25:34.687Z,1.77
2023-04-11T02:28:01.144Z,2.55
2023-04-11T02:30:27.640Z,2.28
2023-04-11T02:32:54.106Z,2.03
2023-04-11T02:35:20.678Z,1.95
2023-04-11T02:37:47.128Z,1.75
2023-04-11T02:40:13.594Z,1.50
2023-04-11T02:42:43.138Z,1.35
2023-04-11T02:45:11.610Z,1.25
2023-04-11T02:47:39.463Z,1.40
2023-04-11T02:50:08.070Z,1.10
2023-04-11T02:52:42.031Z,1.42
2023-04-11T02:55:10.215Z,1.38
2023-04-11T02:57:36.858Z,1.48
2023-04-11T03:00:07.185Z,1.50
2023-04-11T03:02:43.421Z,1.13
2023-04-11T03:05:10.756Z,1.08
2023-04-11T03:07:46.882Z,1.55
2023-04-11T03:10:13.319Z,1.67
2023-04-11T03:12:40.248Z,1.50
2023-04-11T03:15:09.137Z,1.30
2023-04-11T03:17:35.795Z,1.38
2023-04-11T03:20:07.121Z,1.52
2023-04-11T03:22:34.229Z,2.30
2023-04-11T03:25:01.016Z,1.50
2023-04-11T03:27:27.477Z,1.20
2023-04-11T03:30:00.553Z,1.08
2023-04-11T03:32:36.454Z,1.42
2023-04-11T03:35:03.049Z,1.50
2023-04-11T03:37:30.024Z,1.48
2023-04-11T03:39:56.765Z,1.42
2023-04-11T03:42:23.572Z,1.60
2023-04-11T03:44:55.514Z,1.58
2023-04-11T03:47:25.489Z,2.05
2023-04-11T03:49:52.278Z,1.50
2023-04-11T03:52:19.081Z,1.30
2023-04-11T03:54:47.996Z,1.05
2023-04-11T03:57:15.880Z,1.40
2023-04-11T03:59:42.269Z,1.63
2023-04-11T04:02:12.233Z,1.00
2023-04-11T04:04:47.160Z,1.77
2023-04-11T04:07:25.580Z,1.15
2023-04-11T04:09:56.816Z,1.20
2023-04-11T04:12:23.472Z,1.65
2023-04-11T04:15:08.685Z,1.58
2023-04-11T04:17:36.092Z,1.60
2023-04-11T04:20:08.835Z,1.40
2023-04-11T04:22:38.031Z,1.50
2023-04-11T04:25:05.807Z,1.98
2023-04-11T04:27:34.712Z,1.30
2023-04-11T04:30:04.282Z,1.67
2023-04-11T04:32:54.783Z,1.50
2023-04-11T04:35:22.514Z,1.13
2023-04-11T04:37:49.906Z,1.40
2023-04-11T04:40:27.430Z,1.42
2023-04-11T04:42:58.976Z,1.30
2023-04-11T04:45:45.637Z,1.20
2023-04-11T04:48:17.425Z,1.25
2023-04-11T04:50:45.527Z,1.58
2023-04-11T04:53:12.093Z,1.45
2023-04-11T04:55:44.894Z,1.33
2023-04-11T04:58:11.369Z,1.48
2023-04-11T05:00:38.264Z,1.10
2023-04-11T05:03:10.817Z,1.60
2023-04-11T05:05:37.363Z,1.23
2023-04-11T05:08:05.059Z,1.13
2023-04-11T05:10:33.123Z,1.50
2023-04-11T05:12:59.811Z,1.65
2023-04-11T05:15:26.306Z,1.52
2023-04-11T05:17:52.870Z,1.27
2023-04-11T05:20:19.567Z,1.20
2023-04-11T05:22:49.276Z,1.25
2023-04-11T05:25:16.605Z,1.63
2023-04-11T05:27:43.407Z,1.05
2023-04-11T05:30:10.653Z,1.08
2023-04-11T05:32:38.919Z,1.42
2023-04-11T05:35:06.530Z,1.30
2023-04-11T05:37:43.369Z,1.60
2023-04-11T05:40:10.586Z,1.35
2023-04-11T05:42:37.045Z,1.70
2023-04-11T05:45:03.763Z,1.20
2023-04-11T05:47:31.163Z,1.02
2023-04-11T05:49:57.637Z,1.48
2023-04-11T05:52:24.041Z,1.10
2023-04-11T05:54:50.721Z,1.40
2023-04-11T05:57:17.573Z,1.30
2023-04-11T05:59:44.109Z,1.20
2023-04-11T06:02:10.853Z,1.38
2023-04-11T06:04:37.529Z,1.30
2023-04-11T06:07:04.432Z,0.90
2023-04-11T06:09:33.458Z,1.50
2023-04-11T06:12:01.325Z,2.03
2023-04-11T06:14:27.711Z,1.85
2023-04-11T06:16:54.343Z,1.30
2023-04-11T06:19:20.906Z,0.95
2023-04-11T06:21:47.358Z,1.38
2023-04-11T06:24:15.445Z,1.20
2023-04-11T06:26:41.921Z,1.48
2023-04-11T06:29:08.397Z,1.42
2023-04-11T06:31:34.915Z,1.00
2023-04-11T06:34:01.970Z,1.40
2023-04-11T06:36:30.393Z,1.30
2023-04-11T06:38:56.804Z,1.58
2023-04-11T06:41:23.902Z,1.63
2023-04-11T06:43:50.468Z,1.30
2023-04-11T06:46:16.984Z,1.40
2023-04-11T06:48:43.558Z,1.50
2023-04-11T06:51:10.465Z,1.70
2023-04-11T06:53:37.199Z,1.58
2023-04-11T06:56:03.990Z,2.40
2023-04-11T06:58:30.503Z,1.60
2023-04-11T07:00:56.984Z,1.70
2023-04-11T07:03:25.194Z,1.90
2023-04-11T07:05:52.188Z,1.55
2023-04-11T07:08:18.722Z,1.70
2023-04-11T07:10:45.175Z,1.83
2023-04-11T07:13:11.658Z,1.80
2023-04-11T07:15:38.177Z,1.73
2023-04-11T07:18:04.801Z,1.50
2023-04-11T07:20:32.980Z,1.65
2023-04-11T07:22:59.448Z,1.65
2023-04-11T07:25:27.097Z,1.90
2023-04-11T07:27:53.694Z,1.48
2023-04-11T07:30:20.242Z,1.80
2023-04-11T07:32:47.078Z,1.63
2023-04-11T07:35:14.234Z,1.48
2023-04-11T07:37:42.273Z,1.40
2023-04-11T07:40:11.791Z,1.80
2023-04-11T07:42:38.252Z,1.55
2023-04-11T07:45:05.695Z,1.67
2023-04-11T07:47:32.187Z,1.80
2023-04-11T07:49:58.955Z,1.63
2023-04-11T07:52:25.871Z,1.35
2023-04-11T07:54:52.350Z,1.92
2023-04-11T07:57:18.879Z,1.40
2023-04-11T07:59:46.290Z,1.30
2023-04-11T08:02:12.987Z,1.30
2023-04-11T08:04:39.573Z,1.42
2023-04-11T08:07:06.832Z,1.70
2023-04-11T08:09:34.243Z,1.90
2023-04-11T08:12:01.690Z,1.27
2023-04-11T08:14:28.320Z,1.58
2023-04-11T08:16:54.848Z,1.77
2023-04-11T08:19:21.861Z,1.20
2023-04-11T08:21:48.434Z,1.63
2023-04-11T08:24:15.018Z,1.45
2023-04-11T08:26:41.472Z,1.45
2023-04-11T08:29:11.333Z,1.50
2023-04-11T08:31:42.369Z,2.78
2023-04-11T08:34:09.159Z,1.57
2023-04-11T08:36:35.892Z,1.90
2023-04-11T08:39:02.378Z,1.13
2023-04-11T08:41:30.724Z,1.55
2023-04-11T08:43:58.002Z,1.75
2023-04-11T08:46:25.090Z,1.60
2023-04-11T08:48:51.596Z,1.67
2023-04-11T08:51:23.077Z,1.10
2023-04-11T08:53:53.921Z,0.90
2023-04-11T08:56:20.547Z,0.77
2023-04-11T08:58:48.451Z,1.17
2023-04-11T09:01:32.496Z,1.65
2023-04-11T09:04:01.201Z,1.50
2023-04-11T09:06:32.412Z,1.20
2023-04-11T09:09:00.006Z,1.20
2023-04-11T09:11:27.327Z,1.30
2023-04-11T09:14:10.634Z,1.20
2023-04-11T09:16:37.649Z,1.30
2023-04-11T09:19:23.257Z,1.10
2023-04-11T09:21:50.408Z,1.30
2023-04-11T09:24:17.563Z,8.40
2023-04-11T09:26:44.182Z,1.70
2023-04-11T09:29:10.713Z,1.58
2023-04-11T09:31:44.956Z,1.30
2023-04-11T09:34:13.138Z,1.30
2023-04-11T09:36:39.676Z,1.00
2023-04-11T09:39:19.060Z,0.90
2023-04-11T09:41:46.045Z,1.35
2023-04-11T09:44:12.925Z,0.88
2023-04-11T09:46:59.176Z,1.13
2023-04-11T09:49:26.126Z,1.17
2023-04-11T09:51:53.137Z,0.90
2023-04-11T09:54:22.267Z,1.42
2023-04-11T09:56:49.224Z,1.40
2023-04-11T09:59:16.407Z,1.38
2023-04-11T10:01:43.990Z,1.00
2023-04-11T10:04:14.304Z,1.20
2023-04-11T10:07:07.969Z,1.40
2023-04-11T10:09:39.303Z,1.23
2023-04-11T10:12:06.122Z,1.13
2023-04-11T10:14:38.614Z,1.30
2023-04-11T10:17:21.986Z,1.23
2023-04-11T10:19:51.535Z,1.27
2023-04-11T10:22:49.042Z,1.23
2023-04-11T10:25:19.799Z,1.23
2023-04-11T10:27:53.468Z,0.87
2023-04-11T10:30:38.882Z,1.00
2023-04-11T10:33:14.920Z,1.17
2023-04-11T10:36:03.695Z,0.90
2023-04-11T10:38:48.586Z,0.98
2023-04-11T10:41:33.353Z,1.15
2023-04-11T10:44:24.838Z,1.20
2023-04-11T10:46:57.998Z,1.02
2023-04-11T10:49:38.800Z,1.15
2023-04-11T10:52:23.711Z,1.00
2023-04-11T10:54:54.551Z,0.68
2023-04-11T10:57:21.595Z,0.73
2023-04-11T10:59:50.990Z,1.02
2023-04-11T11:02:19.476Z,1.00
2023-04-11T11:04:46.656Z,1.20
2023-04-11T11:07:15.565Z,1.30
2023-04-11T11:09:48.440Z,1.25
2023-04-11T11:12:16.605Z,1.10
2023-04-11T11:14:46.982Z,1.48
2023-04-11T11:17:15.201Z,1.00
2023-04-11T11:19:45.762Z,1.30
2023-04-11T11:22:16.316Z,1.30
2023-04-11T11:24:42.858Z,1.52
2023-04-11T11:27:20.124Z,0.93
2023-04-11T11:29:46.675Z,1.45
2023-04-11T11:32:29.025Z,1.13
2023-04-11T11:34:57.470Z,1.98
2023-04-11T11:37:24.324Z,1.60
2023-04-11T11:39:51.491Z,1.10
2023-04-11T11:42:18.414Z,1.05
2023-04-11T11:44:45.078Z,1.40
2023-04-11T11:47:15.034Z,1.00
2023-04-11T11:49:53.230Z,1.10
2023-04-11T11:52:41.874Z,1.50
2023-04-11T11:55:28.408Z,1.10
2023-04-11T11:57:59.880Z,1.23
2023-04-11T12:00:28.409Z,1.27
2023-04-11T12:02:56.620Z,1.60
2023-04-11T12:05:30.964Z,1.63
2023-04-11T12:07:59.427Z,1.38
2023-04-11T12:10:36.363Z,1.30
2023-04-11T12:13:02.894Z,1.25
2023-04-11T12:15:29.343Z,0.82
2023-04-11T12:17:56.046Z,1.52
2023-04-11T12:20:27.197Z,1.00
2023-04-11T12:22:55.316Z,1.13
2023-04-11T12:25:23.107Z,1.20
2023-04-11T12:27:49.663Z,1.27
2023-04-11T12:30:16.171Z,1.13
2023-04-11T12:32:43.432Z,1.20
2023-04-11T12:35:11.788Z,1.35
2023-04-11T12:37:38.908Z,1.63
2023-04-11T12:40:12.644Z,1.17
2023-04-11T12:42:49.554Z,1.20
2023-04-11T12:45:23.364Z,1.30
